Terminal Aerodrome Forecast
Issued by NWS North Platte, NE

Home | Current Version | Previous Version | Text Only | Print | Product List | Glossary On
Versions: 1 2 3 4 5 6 7 8 9 10 11 12 13 14 15 16 17
000
FTUS43 KLBF 040500
TAFLBF
TAF
KLBF 040520Z 0406/0506 04012KT P6SM BKN200
     FM041500 07012KT P6SM BKN050 OVC120
     FM041700 07012KT P6SM -SHRA OVC050
     FM042100 08010KT P6SM OVC035
     FM050000 07008KT P6SM OVC015=

USA.gov is the U.S. government's official web portal to all federal, state and local government web resources and services.